sensor_id;sensor_type;location;lat;lon;timestamp;P1;durP1;ratioP1;P2;durP2;ratioP2
21769;SDS011;11046;49.558;8.674;2023-02-13T00:00:24;39.03;;;16.97;;
21769;SDS011;11046;49.558;8.674;2023-02-13T00:03:33;37.70;;;14.70;;
21769;SDS011;11046;49.558;8.674;2023-02-13T00:06:33;34.83;;;14.63;;
21769;SDS011;11046;49.558;8.674;2023-02-13T00:09:36;43.10;;;17.83;;
21769;SDS011;11046;49.558;8.674;2023-02-13T00:12:37;44.63;;;19.30;;
21769;SDS011;11046;49.558;8.674;2023-02-13T00:15:38;40.03;;;17.53;;
21769;SDS011;11046;49.558;8.674;2023-02-13T00:18:39;47.10;;;20.30;;
21769;SDS011;11046;49.558;8.674;2023-02-13T00:21:39;44.47;;;20.00;;
21769;SDS011;11046;49.558;8.674;2023-02-13T00:24:42;45.13;;;19.37;;
21769;SDS011;11046;49.558;8.674;2023-02-13T00:27:43;44.57;;;20.53;;
21769;SDS011;11046;49.558;8.674;2023-02-13T00:30:44;43.83;;;20.10;;
21769;SDS011;11046;49.558;8.674;2023-02-13T00:33:47;45.17;;;20.13;;
21769;SDS011;11046;49.558;8.674;2023-02-13T00:36:51;46.60;;;20.00;;
21769;SDS011;11046;49.558;8.674;2023-02-13T00:39:59;38.07;;;18.13;;
21769;SDS011;11046;49.558;8.674;2023-02-13T00:43:05;41.23;;;17.87;;
21769;SDS011;11046;49.558;8.674;2023-02-13T00:46:11;36.83;;;18.03;;
21769;SDS011;11046;49.558;8.674;2023-02-13T00:49:12;40.70;;;17.67;;
21769;SDS011;11046;49.558;8.674;2023-02-13T00:52:16;42.67;;;16.63;;
21769;SDS011;11046;49.558;8.674;2023-02-13T00:55:17;41.00;;;17.20;;
21769;SDS011;11046;49.558;8.674;2023-02-13T00:58:18;35.47;;;16.27;;
21769;SDS011;11046;49.558;8.674;2023-02-13T01:01:28;39.37;;;16.77;;
21769;SDS011;11046;49.558;8.674;2023-02-13T01:04:36;42.77;;;17.60;;
21769;SDS011;11046;49.558;8.674;2023-02-13T01:07:37;43.53;;;19.17;;
21769;SDS011;11046;49.558;8.674;2023-02-13T01:10:39;46.30;;;19.97;;
21769;SDS011;11046;49.558;8.674;2023-02-13T01:13:44;43.70;;;18.80;;
21769;SDS011;11046;49.558;8.674;2023-02-13T01:16:45;43.23;;;19.43;;
21769;SDS011;11046;49.558;8.674;2023-02-13T01:19:48;46.07;;;20.00;;
21769;SDS011;11046;49.558;8.674;2023-02-13T01:22:49;43.90;;;19.40;;
21769;SDS011;11046;49.558;8.674;2023-02-13T01:25:53;44.00;;;18.23;;
21769;SDS011;11046;49.558;8.674;2023-02-13T01:28:53;42.23;;;18.63;;
21769;SDS011;11046;49.558;8.674;2023-02-13T01:32:00;41.37;;;16.80;;
21769;SDS011;11046;49.558;8.674;2023-02-13T01:35:04;42.57;;;16.70;;
21769;SDS011;11046;49.558;8.674;2023-02-13T01:38:06;42.13;;;18.03;;
21769;SDS011;11046;49.558;8.674;2023-02-13T01:41:07;49.03;;;19.37;;
21769;SDS011;11046;49.558;8.674;2023-02-13T01:47:47;42.63;;;18.03;;
21769;SDS011;11046;49.558;8.674;2023-02-13T01:50:59;39.73;;;17.20;;
21769;SDS011;11046;49.558;8.674;2023-02-13T01:54:03;40.73;;;16.53;;
21769;SDS011;11046;49.558;8.674;2023-02-13T01:57:17;40.30;;;15.63;;
21769;SDS011;11046;49.558;8.674;2023-02-13T02:00:21;39.33;;;15.80;;
21769;SDS011;11046;49.558;8.674;2023-02-13T02:03:25;42.30;;;15.80;;
21769;SDS011;11046;49.558;8.674;2023-02-13T02:06:38;37.90;;;14.67;;
21769;SDS011;11046;49.558;8.674;2023-02-13T02:09:55;35.27;;;14.37;;
21769;SDS011;11046;49.558;8.674;2023-02-13T02:13:09;39.13;;;13.97;;
21769;SDS011;11046;49.558;8.674;2023-02-13T02:16:21;43.17;;;15.10;;
21769;SDS011;11046;49.558;8.674;2023-02-13T02:19:46;42.87;;;16.07;;
21769;SDS011;11046;49.558;8.674;2023-02-13T02:40:01;32.90;;;13.00;;
21769;SDS011;11046;49.558;8.674;2023-02-13T02:43:17;33.30;;;13.17;;
21769;SDS011;11046;49.558;8.674;2023-02-13T02:46:33;32.43;;;13.93;;
21769;SDS011;11046;49.558;8.674;2023-02-13T02:49:40;31.77;;;14.20;;
21769;SDS011;11046;49.558;8.674;2023-02-13T02:56:23;37.60;;;16.27;;
21769;SDS011;11046;49.558;8.674;2023-02-13T02:59:40;35.80;;;15.67;;
21769;SDS011;11046;49.558;8.674;2023-02-13T03:03:08;34.13;;;14.50;;
21769;SDS011;11046;49.558;8.674;2023-02-13T03:10:08;39.93;;;16.13;;
21769;SDS011;11046;49.558;8.674;2023-02-13T03:13:33;37.83;;;15.77;;
21769;SDS011;11046;49.558;8.674;2023-02-13T03:16:39;39.63;;;14.57;;
21769;SDS011;11046;49.558;8.674;2023-02-13T03:23:22;34.90;;;13.60;;
21769;SDS011;11046;49.558;8.674;2023-02-13T03:26:46;36.10;;;14.17;;
21769;SDS011;11046;49.558;8.674;2023-02-13T03:37:13;39.43;;;17.27;;
21769;SDS011;11046;49.558;8.674;2023-02-13T03:40:41;44.27;;;18.80;;
21769;SDS011;11046;49.558;8.674;2023-02-13T03:44:22;44.87;;;17.77;;
21769;SDS011;11046;49.558;8.674;2023-02-13T03:47:24;36.53;;;16.30;;
21769;SDS011;11046;49.558;8.674;2023-02-13T03:50:25;41.37;;;17.63;;
21769;SDS011;11046;49.558;8.674;2023-02-13T03:53:28;40.07;;;17.10;;
21769;SDS011;11046;49.558;8.674;2023-02-13T03:56:32;47.60;;;18.33;;
21769;SDS011;11046;49.558;8.674;2023-02-13T03:59:53;51.23;;;19.80;;
21769;SDS011;11046;49.558;8.674;2023-02-13T04:03:00;43.63;;;19.53;;
21769;SDS011;11046;49.558;8.674;2023-02-13T04:06:22;44.37;;;18.40;;
21769;SDS011;11046;49.558;8.674;2023-02-13T04:09:31;44.83;;;20.13;;
21769;SDS011;11046;49.558;8.674;2023-02-13T04:12:50;42.03;;;17.80;;
21769;SDS011;11046;49.558;8.674;2023-02-13T04:19:15;40.40;;;17.43;;
21769;SDS011;11046;49.558;8.674;2023-02-13T04:22:16;41.73;;;17.33;;
21769;SDS011;11046;49.558;8.674;2023-02-13T04:25:16;48.17;;;17.70;;
21769;SDS011;11046;49.558;8.674;2023-02-13T04:28:18;41.60;;;18.03;;
21769;SDS011;11046;49.558;8.674;2023-02-13T04:31:18;47.13;;;18.77;;
21769;SDS011;11046;49.558;8.674;2023-02-13T04:34:19;40.87;;;18.23;;
21769;SDS011;11046;49.558;8.674;2023-02-13T04:37:19;43.57;;;18.43;;
21769;SDS011;11046;49.558;8.674;2023-02-13T04:40:20;42.20;;;16.90;;
21769;SDS011;11046;49.558;8.674;2023-02-13T04:43:21;42.10;;;17.30;;
21769;SDS011;11046;49.558;8.674;2023-02-13T04:46:21;38.87;;;15.87;;
21769;SDS011;11046;49.558;8.674;2023-02-13T04:49:22;41.70;;;17.10;;
21769;SDS011;11046;49.558;8.674;2023-02-13T04:52:23;40.57;;;16.30;;
21769;SDS011;11046;49.558;8.674;2023-02-13T04:55:24;40.77;;;15.53;;
21769;SDS011;11046;49.558;8.674;2023-02-13T04:58:25;43.73;;;16.23;;
21769;SDS011;11046;49.558;8.674;2023-02-13T05:01:26;48.47;;;16.27;;
21769;SDS011;11046;49.558;8.674;2023-02-13T05:04:27;40.00;;;15.27;;
21769;SDS011;11046;49.558;8.674;2023-02-13T05:07:27;46.30;;;16.73;;
21769;SDS011;11046;49.558;8.674;2023-02-13T05:10:28;39.47;;;14.57;;
21769;SDS011;11046;49.558;8.674;2023-02-13T05:13:29;37.33;;;14.70;;
21769;SDS011;11046;49.558;8.674;2023-02-13T05:16:30;39.70;;;15.47;;
21769;SDS011;11046;49.558;8.674;2023-02-13T05:19:30;38.90;;;15.00;;
21769;SDS011;11046;49.558;8.674;2023-02-13T05:22:31;39.13;;;15.93;;
21769;SDS011;11046;49.558;8.674;2023-02-13T05:25:50;30.63;;;14.43;;
21769;SDS011;11046;49.558;8.674;2023-02-13T05:28:51;36.77;;;15.33;;
21769;SDS011;11046;49.558;8.674;2023-02-13T05:32:10;33.13;;;14.20;;
21769;SDS011;11046;49.558;8.674;2023-02-13T05:35:11;35.30;;;14.63;;
21769;SDS011;11046;49.558;8.674;2023-02-13T05:38:11;36.17;;;16.00;;
21769;SDS011;11046;49.558;8.674;2023-02-13T05:41:12;34.73;;;15.80;;
21769;SDS011;11046;49.558;8.674;2023-02-13T05:44:13;38.80;;;15.97;;
21769;SDS011;11046;49.558;8.674;2023-02-13T05:47:14;37.53;;;15.43;;
21769;SDS011;11046;49.558;8.674;2023-02-13T05:50:14;38.40;;;15.60;;
21769;SDS011;11046;49.558;8.674;2023-02-13T05:53:15;35.27;;;14.93;;
21769;SDS011;11046;49.558;8.674;2023-02-13T05:56:16;38.83;;;14.67;;
21769;SDS011;11046;49.558;8.674;2023-02-13T05:59:16;35.93;;;14.57;;
21769;SDS011;11046;49.558;8.674;2023-02-13T06:02:17;36.63;;;14.80;;
21769;SDS011;11046;49.558;8.674;2023-02-13T06:05:17;35.77;;;14.50;;
21769;SDS011;11046;49.558;8.674;2023-02-13T06:08:18;34.90;;;15.03;;
21769;SDS011;11046;49.558;8.674;2023-02-13T06:11:19;34.23;;;13.87;;
21769;SDS011;11046;49.558;8.674;2023-02-13T06:14:19;35.03;;;13.60;;
21769;SDS011;11046;49.558;8.674;2023-02-13T06:17:20;33.43;;;13.67;;
21769;SDS011;11046;49.558;8.674;2023-02-13T06:20:21;36.57;;;13.50;;
21769;SDS011;11046;49.558;8.674;2023-02-13T06:23:21;35.30;;;13.60;;
21769;SDS011;11046;49.558;8.674;2023-02-13T06:26:23;32.50;;;13.20;;
21769;SDS011;11046;49.558;8.674;2023-02-13T06:29:24;35.70;;;13.07;;
21769;SDS011;11046;49.558;8.674;2023-02-13T06:32:24;34.57;;;13.20;;
21769;SDS011;11046;49.558;8.674;2023-02-13T06:35:25;28.37;;;12.30;;
21769;SDS011;11046;49.558;8.674;2023-02-13T06:38:26;28.57;;;13.00;;
21769;SDS011;11046;49.558;8.674;2023-02-13T06:41:26;31.43;;;12.67;;
21769;SDS011;11046;49.558;8.674;2023-02-13T06:44:27;29.43;;;13.90;;
21769;SDS011;11046;49.558;8.674;2023-02-13T06:47:28;31.80;;;13.37;;
21769;SDS011;11046;49.558;8.674;2023-02-13T06:50:28;37.77;;;15.07;;
21769;SDS011;11046;49.558;8.674;2023-02-13T06:53:29;37.83;;;15.73;;
21769;SDS011;11046;49.558;8.674;2023-02-13T06:56:30;42.73;;;15.87;;
21769;SDS011;11046;49.558;8.674;2023-02-13T06:59:31;37.20;;;15.47;;
21769;SDS011;11046;49.558;8.674;2023-02-13T07:02:32;37.93;;;15.87;;
21769;SDS011;11046;49.558;8.674;2023-02-13T07:05:32;33.93;;;15.40;;
21769;SDS011;11046;49.558;8.674;2023-02-13T07:08:33;45.80;;;17.00;;
21769;SDS011;11046;49.558;8.674;2023-02-13T07:11:33;37.03;;;16.63;;
21769;SDS011;11046;49.558;8.674;2023-02-13T07:14:34;40.70;;;16.27;;
21769;SDS011;11046;49.558;8.674;2023-02-13T07:17:35;44.73;;;16.97;;
21769;SDS011;11046;49.558;8.674;2023-02-13T07:20:36;45.47;;;18.50;;
21769;SDS011;11046;49.558;8.674;2023-02-13T07:23:36;42.20;;;17.13;;
21769;SDS011;11046;49.558;8.674;2023-02-13T07:26:37;45.23;;;17.70;;
21769;SDS011;11046;49.558;8.674;2023-02-13T07:29:38;46.07;;;18.57;;
21769;SDS011;11046;49.558;8.674;2023-02-13T07:32:38;47.10;;;18.20;;
21769;SDS011;11046;49.558;8.674;2023-02-13T07:35:39;44.27;;;18.17;;
21769;SDS011;11046;49.558;8.674;2023-02-13T07:38:44;41.97;;;17.47;;
21769;SDS011;11046;49.558;8.674;2023-02-13T07:41:45;41.80;;;17.33;;
21769;SDS011;11046;49.558;8.674;2023-02-13T07:44:49;42.83;;;19.10;;
21769;SDS011;11046;49.558;8.674;2023-02-13T07:47:49;43.17;;;17.47;;
21769;SDS011;11046;49.558;8.674;2023-02-13T07:50:50;43.37;;;17.20;;
21769;SDS011;11046;49.558;8.674;2023-02-13T07:53:51;43.10;;;17.47;;
21769;SDS011;11046;49.558;8.674;2023-02-13T07:56:52;49.90;;;20.03;;
21769;SDS011;11046;49.558;8.674;2023-02-13T07:59:52;51.00;;;19.23;;
21769;SDS011;11046;49.558;8.674;2023-02-13T08:02:53;46.80;;;18.73;;
21769;SDS011;11046;49.558;8.674;2023-02-13T08:05:53;48.80;;;19.23;;
21769;SDS011;11046;49.558;8.674;2023-02-13T08:08:54;51.03;;;19.47;;
21769;SDS011;11046;49.558;8.674;2023-02-13T08:12:13;50.57;;;20.47;;
21769;SDS011;11046;49.558;8.674;2023-02-13T08:15:14;49.40;;;19.27;;
21769;SDS011;11046;49.558;8.674;2023-02-13T08:18:15;46.60;;;19.23;;
21769;SDS011;11046;49.558;8.674;2023-02-13T08:21:15;38.77;;;17.03;;
21769;SDS011;11046;49.558;8.674;2023-02-13T08:24:16;37.63;;;17.67;;
21769;SDS011;11046;49.558;8.674;2023-02-13T08:27:16;40.70;;;16.77;;
21769;SDS011;11046;49.558;8.674;2023-02-13T08:30:17;35.30;;;15.87;;
21769;SDS011;11046;49.558;8.674;2023-02-13T08:33:17;38.43;;;16.93;;
21769;SDS011;11046;49.558;8.674;2023-02-13T08:36:18;40.00;;;17.03;;
21769;SDS011;11046;49.558;8.674;2023-02-13T08:39:19;33.77;;;15.70;;
21769;SDS011;11046;49.558;8.674;2023-02-13T08:42:20;33.00;;;15.33;;
21769;SDS011;11046;49.558;8.674;2023-02-13T08:45:21;35.97;;;16.17;;
21769;SDS011;11046;49.558;8.674;2023-02-13T08:48:21;34.73;;;17.00;;
21769;SDS011;11046;49.558;8.674;2023-02-13T08:51:22;31.57;;;14.73;;
21769;SDS011;11046;49.558;8.674;2023-02-13T08:54:22;32.63;;;14.63;;
21769;SDS011;11046;49.558;8.674;2023-02-13T08:57:23;33.50;;;16.33;;
21769;SDS011;11046;49.558;8.674;2023-02-13T09:00:23;29.00;;;14.57;;
21769;SDS011;11046;49.558;8.674;2023-02-13T09:03:24;30.07;;;14.90;;
21769;SDS011;11046;49.558;8.674;2023-02-13T09:06:26;27.63;;;14.47;;
21769;SDS011;11046;49.558;8.674;2023-02-13T09:09:27;28.53;;;13.70;;
21769;SDS011;11046;49.558;8.674;2023-02-13T09:12:28;26.23;;;13.47;;
21769;SDS011;11046;49.558;8.674;2023-02-13T09:15:29;29.30;;;14.47;;
21769;SDS011;11046;49.558;8.674;2023-02-13T09:18:30;28.07;;;13.10;;
21769;SDS011;11046;49.558;8.674;2023-02-13T09:21:31;27.33;;;13.30;;
21769;SDS011;11046;49.558;8.674;2023-02-13T09:24:32;23.77;;;12.93;;
21769;SDS011;11046;49.558;8.674;2023-02-13T09:27:32;24.67;;;13.13;;
21769;SDS011;11046;49.558;8.674;2023-02-13T09:30:33;26.27;;;13.27;;
21769;SDS011;11046;49.558;8.674;2023-02-13T09:33:34;22.37;;;12.60;;
21769;SDS011;11046;49.558;8.674;2023-02-13T09:36:35;26.77;;;12.67;;
21769;SDS011;11046;49.558;8.674;2023-02-13T09:39:35;25.43;;;13.10;;
21769;SDS011;11046;49.558;8.674;2023-02-13T09:42:36;22.97;;;13.13;;
21769;SDS011;11046;49.558;8.674;2023-02-13T09:45:37;32.47;;;15.40;;
21769;SDS011;11046;49.558;8.674;2023-02-13T09:48:39;28.43;;;15.20;;
21769;SDS011;11046;49.558;8.674;2023-02-13T09:51:44;29.00;;;16.20;;
21769;SDS011;11046;49.558;8.674;2023-02-13T09:54:47;26.93;;;14.60;;
21769;SDS011;11046;49.558;8.674;2023-02-13T10:00:57;33.23;;;15.43;;
21769;SDS011;11046;49.558;8.674;2023-02-13T10:04:11;27.27;;;15.60;;
21769;SDS011;11046;49.558;8.674;2023-02-13T10:17:25;27.07;;;15.17;;
21769;SDS011;11046;49.558;8.674;2023-02-13T10:20:38;26.70;;;15.60;;
21769;SDS011;11046;49.558;8.674;2023-02-13T10:23:58;26.27;;;15.50;;
21769;SDS011;11046;49.558;8.674;2023-02-13T10:27:10;26.50;;;15.80;;
21769;SDS011;11046;49.558;8.674;2023-02-13T10:30:56;27.27;;;15.20;;
21769;SDS011;11046;49.558;8.674;2023-02-13T10:34:01;25.30;;;14.40;;
21769;SDS011;11046;49.558;8.674;2023-02-13T10:37:08;28.43;;;15.80;;
21769;SDS011;11046;49.558;8.674;2023-02-13T10:40:17;26.47;;;14.93;;
21769;SDS011;11046;49.558;8.674;2023-02-13T10:43:24;24.37;;;15.13;;
21769;SDS011;11046;49.558;8.674;2023-02-13T10:49:45;27.43;;;14.97;;
21769;SDS011;11046;49.558;8.674;2023-02-13T10:53:13;25.50;;;14.50;;
21769;SDS011;11046;49.558;8.674;2023-02-13T10:56:23;25.00;;;14.37;;
21769;SDS011;11046;49.558;8.674;2023-02-13T11:03:01;28.33;;;13.97;;
21769;SDS011;11046;49.558;8.674;2023-02-13T11:06:04;23.97;;;13.90;;
21769;SDS011;11046;49.558;8.674;2023-02-13T11:09:15;23.50;;;13.73;;
21769;SDS011;11046;49.558;8.674;2023-02-13T11:12:27;22.23;;;13.40;;
21769;SDS011;11046;49.558;8.674;2023-02-13T11:15:32;26.57;;;13.90;;
21769;SDS011;11046;49.558;8.674;2023-02-13T11:18:34;22.47;;;13.20;;
21769;SDS011;11046;49.558;8.674;2023-02-13T11:21:38;20.98;;;13.45;;
21769;SDS011;11046;49.558;8.674;2023-02-13T11:24:40;25.47;;;14.33;;
21769;SDS011;11046;49.558;8.674;2023-02-13T11:27:50;22.70;;;13.27;;
21769;SDS011;11046;49.558;8.674;2023-02-13T11:34:24;23.17;;;12.63;;
21769;SDS011;11046;49.558;8.674;2023-02-13T11:37:28;28.27;;;13.82;;
21769;SDS011;11046;49.558;8.674;2023-02-13T11:40:29;22.08;;;13.18;;
21769;SDS011;11046;49.558;8.674;2023-02-13T11:43:35;22.93;;;13.63;;
21769;SDS011;11046;49.558;8.674;2023-02-13T11:46:47;21.07;;;12.57;;
21769;SDS011;11046;49.558;8.674;2023-02-13T11:49:49;23.65;;;12.95;;
21769;SDS011;11046;49.558;8.674;2023-02-13T11:52:54;26.60;;;13.87;;
21769;SDS011;11046;49.558;8.674;2023-02-13T11:56:06;24.63;;;13.23;;
21769;SDS011;11046;49.558;8.674;2023-02-13T11:59:10;23.67;;;13.73;;
21769;SDS011;11046;49.558;8.674;2023-02-13T12:05:29;20.93;;;11.90;;
21769;SDS011;11046;49.558;8.674;2023-02-13T12:08:33;23.60;;;12.57;;
21769;SDS011;11046;49.558;8.674;2023-02-13T12:14:42;20.90;;;12.43;;
21769;SDS011;11046;49.558;8.674;2023-02-13T12:17:45;21.87;;;12.10;;
21769;SDS011;11046;49.558;8.674;2023-02-13T12:24:47;21.73;;;12.53;;
21769;SDS011;11046;49.558;8.674;2023-02-13T12:28:19;19.90;;;11.70;;
21769;SDS011;11046;49.558;8.674;2023-02-13T12:31:48;30.87;;;13.40;;
21769;SDS011;11046;49.558;8.674;2023-02-13T12:35:30;21.97;;;11.77;;
21769;SDS011;11046;49.558;8.674;2023-02-13T12:38:59;17.93;;;11.57;;
21769;SDS011;11046;49.558;8.674;2023-02-13T12:42:20;20.90;;;11.83;;
21769;SDS011;11046;49.558;8.674;2023-02-13T12:45:45;21.30;;;11.43;;
21769;SDS011;11046;49.558;8.674;2023-02-13T12:49:21;19.13;;;11.70;;
21769;SDS011;11046;49.558;8.674;2023-02-13T12:52:42;19.27;;;12.13;;
21769;SDS011;11046;49.558;8.674;2023-02-13T13:03:03;20.67;;;12.33;;
21769;SDS011;11046;49.558;8.674;2023-02-13T13:09:53;20.40;;;11.65;;
21769;SDS011;11046;49.558;8.674;2023-02-13T13:16:20;20.30;;;11.75;;
21769;SDS011;11046;49.558;8.674;2023-02-13T13:19:48;18.77;;;11.75;;
21769;SDS011;11046;49.558;8.674;2023-02-13T13:26:32;20.73;;;11.50;;
21769;SDS011;11046;49.558;8.674;2023-02-13T13:29:43;18.95;;;11.20;;
21769;SDS011;11046;49.558;8.674;2023-02-13T13:32:54;19.30;;;11.63;;
21769;SDS011;11046;49.558;8.674;2023-02-13T13:42:50;17.05;;;10.73;;
21769;SDS011;11046;49.558;8.674;2023-02-13T13:49:11;24.92;;;11.52;;
21769;SDS011;11046;49.558;8.674;2023-02-13T13:52:26;17.23;;;10.82;;
21769;SDS011;11046;49.558;8.674;2023-02-13T13:55:57;19.47;;;11.13;;
21769;SDS011;11046;49.558;8.674;2023-02-13T13:58:57;18.13;;;10.87;;
21769;SDS011;11046;49.558;8.674;2023-02-13T14:11:43;15.50;;;9.40;;
21769;SDS011;11046;49.558;8.674;2023-02-13T14:14:48;19.85;;;11.07;;
21769;SDS011;11046;49.558;8.674;2023-02-13T14:17:51;17.37;;;10.97;;
21769;SDS011;11046;49.558;8.674;2023-02-13T14:20:54;18.88;;;11.40;;
21769;SDS011;11046;49.558;8.674;2023-02-13T14:23:58;19.40;;;11.03;;
21769;SDS011;11046;49.558;8.674;2023-02-13T14:27:14;17.37;;;10.93;;
21769;SDS011;11046;49.558;8.674;2023-02-13T14:30:27;18.58;;;11.02;;
21769;SDS011;11046;49.558;8.674;2023-02-13T14:33:31;22.67;;;13.50;;
21769;SDS011;11046;49.558;8.674;2023-02-13T14:36:33;20.47;;;11.30;;
21769;SDS011;11046;49.558;8.674;2023-02-13T14:39:38;21.03;;;11.23;;
21769;SDS011;11046;49.558;8.674;2023-02-13T14:42:41;19.97;;;11.20;;
21769;SDS011;11046;49.558;8.674;2023-02-13T14:45:48;18.50;;;11.30;;
21769;SDS011;11046;49.558;8.674;2023-02-13T14:49:01;21.00;;;10.97;;
21769;SDS011;11046;49.558;8.674;2023-02-13T14:52:18;22.23;;;11.50;;
21769;SDS011;11046;49.558;8.674;2023-02-13T14:55:33;21.60;;;11.70;;
21769;SDS011;11046;49.558;8.674;2023-02-13T14:58:43;20.43;;;11.53;;
21769;SDS011;11046;49.558;8.674;2023-02-13T15:01:50;19.23;;;11.33;;
21769;SDS011;11046;49.558;8.674;2023-02-13T15:05:16;17.63;;;10.90;;
21769;SDS011;11046;49.558;8.674;2023-02-13T15:08:23;21.53;;;11.67;;
21769;SDS011;11046;49.558;8.674;2023-02-13T15:11:35;19.10;;;11.00;;
21769;SDS011;11046;49.558;8.674;2023-02-13T15:14:41;24.80;;;13.00;;
21769;SDS011;11046;49.558;8.674;2023-02-13T15:17:42;22.37;;;13.10;;
21769;SDS011;11046;49.558;8.674;2023-02-13T15:20:43;21.93;;;12.47;;
21769;SDS011;11046;49.558;8.674;2023-02-13T15:23:49;34.40;;;15.47;;
21769;SDS011;11046;49.558;8.674;2023-02-13T15:26:58;28.30;;;15.63;;
21769;SDS011;11046;49.558;8.674;2023-02-13T15:33:18;34.60;;;19.00;;
21769;SDS011;11046;49.558;8.674;2023-02-13T15:36:21;37.40;;;20.07;;
21769;SDS011;11046;49.558;8.674;2023-02-13T15:39:27;42.50;;;21.97;;
21769;SDS011;11046;49.558;8.674;2023-02-13T15:42:30;39.03;;;20.87;;
21769;SDS011;11046;49.558;8.674;2023-02-13T15:45:32;38.73;;;20.37;;
21769;SDS011;11046;49.558;8.674;2023-02-13T15:48:33;37.73;;;19.07;;
21769;SDS011;11046;49.558;8.674;2023-02-13T15:51:35;39.33;;;20.23;;
21769;SDS011;11046;49.558;8.674;2023-02-13T15:54:45;46.13;;;22.40;;
21769;SDS011;11046;49.558;8.674;2023-02-13T15:57:49;42.07;;;21.37;;
21769;SDS011;11046;49.558;8.674;2023-02-13T16:00:51;42.23;;;21.50;;
21769;SDS011;11046;49.558;8.674;2023-02-13T16:03:55;42.30;;;22.17;;
21769;SDS011;11046;49.558;8.674;2023-02-13T16:07:01;39.73;;;21.33;;
21769;SDS011;11046;49.558;8.674;2023-02-13T16:13:26;41.83;;;20.87;;
21769;SDS011;11046;49.558;8.674;2023-02-13T16:16:29;39.00;;;20.53;;
21769;SDS011;11046;49.558;8.674;2023-02-13T16:19:38;42.47;;;20.23;;
21769;SDS011;11046;49.558;8.674;2023-02-13T16:22:52;43.77;;;20.77;;
21769;SDS011;11046;49.558;8.674;2023-02-13T16:25:58;48.23;;;24.27;;
21769;SDS011;11046;49.558;8.674;2023-02-13T16:29:02;41.33;;;22.30;;
21769;SDS011;11046;49.558;8.674;2023-02-13T16:32:12;41.67;;;22.30;;
21769;SDS011;11046;49.558;8.674;2023-02-13T16:35:26;48.23;;;24.43;;
21769;SDS011;11046;49.558;8.674;2023-02-13T16:38:35;43.60;;;20.53;;
21769;SDS011;11046;49.558;8.674;2023-02-13T16:41:36;39.13;;;20.30;;
21769;SDS011;11046;49.558;8.674;2023-02-13T16:44:38;36.27;;;19.70;;
21769;SDS011;11046;49.558;8.674;2023-02-13T16:47:39;43.20;;;19.23;;
21769;SDS011;11046;49.558;8.674;2023-02-13T16:50:41;35.13;;;19.10;;
21769;SDS011;11046;49.558;8.674;2023-02-13T16:53:42;39.67;;;19.40;;
21769;SDS011;11046;49.558;8.674;2023-02-13T16:56:45;41.13;;;19.50;;
21769;SDS011;11046;49.558;8.674;2023-02-13T17:02:58;40.37;;;19.23;;
21769;SDS011;11046;49.558;8.674;2023-02-13T17:06:00;41.73;;;20.47;;
21769;SDS011;11046;49.558;8.674;2023-02-13T17:09:02;49.40;;;23.73;;
21769;SDS011;11046;49.558;8.674;2023-02-13T17:12:03;48.97;;;24.50;;
21769;SDS011;11046;49.558;8.674;2023-02-13T17:15:13;51.03;;;27.17;;
21769;SDS011;11046;49.558;8.674;2023-02-13T17:18:16;45.90;;;24.07;;
21769;SDS011;11046;49.558;8.674;2023-02-13T17:21:17;45.47;;;23.17;;
21769;SDS011;11046;49.558;8.674;2023-02-13T17:24:17;42.87;;;22.43;;
21769;SDS011;11046;49.558;8.674;2023-02-13T17:27:18;48.23;;;22.03;;
21769;SDS011;11046;49.558;8.674;2023-02-13T17:30:20;44.43;;;20.97;;
21769;SDS011;11046;49.558;8.674;2023-02-13T17:33:27;48.67;;;22.23;;
21769;SDS011;11046;49.558;8.674;2023-02-13T17:36:33;48.80;;;23.47;;
21769;SDS011;11046;49.558;8.674;2023-02-13T17:39:34;43.23;;;22.17;;
21769;SDS011;11046;49.558;8.674;2023-02-13T17:42:36;44.13;;;23.87;;
21769;SDS011;11046;49.558;8.674;2023-02-13T17:45:38;52.53;;;25.13;;
21769;SDS011;11046;49.558;8.674;2023-02-13T17:48:40;48.57;;;24.33;;
21769;SDS011;11046;49.558;8.674;2023-02-13T17:51:41;57.47;;;25.43;;
21769;SDS011;11046;49.558;8.674;2023-02-13T17:54:42;48.00;;;23.10;;
21769;SDS011;11046;49.558;8.674;2023-02-13T17:57:44;50.23;;;24.70;;
21769;SDS011;11046;49.558;8.674;2023-02-13T18:00:45;46.70;;;24.23;;
21769;SDS011;11046;49.558;8.674;2023-02-13T18:03:45;46.97;;;22.33;;
21769;SDS011;11046;49.558;8.674;2023-02-13T18:06:50;44.70;;;22.30;;
21769;SDS011;11046;49.558;8.674;2023-02-13T18:09:53;47.43;;;22.47;;
21769;SDS011;11046;49.558;8.674;2023-02-13T18:12:55;45.27;;;22.03;;
21769;SDS011;11046;49.558;8.674;2023-02-13T18:16:06;44.87;;;23.00;;
21769;SDS011;11046;49.558;8.674;2023-02-13T18:19:09;49.40;;;23.03;;
21769;SDS011;11046;49.558;8.674;2023-02-13T18:22:10;48.97;;;23.47;;
21769;SDS011;11046;49.558;8.674;2023-02-13T18:25:12;51.27;;;22.60;;
21769;SDS011;11046;49.558;8.674;2023-02-13T18:28:13;51.07;;;23.77;;
21769;SDS011;11046;49.558;8.674;2023-02-13T18:31:14;43.03;;;21.70;;
21769;SDS011;11046;49.558;8.674;2023-02-13T18:34:16;43.60;;;22.27;;
21769;SDS011;11046;49.558;8.674;2023-02-13T18:37:17;54.10;;;27.50;;
21769;SDS011;11046;49.558;8.674;2023-02-13T18:40:19;46.13;;;24.07;;
21769;SDS011;11046;49.558;8.674;2023-02-13T18:43:20;46.17;;;22.90;;
21769;SDS011;11046;49.558;8.674;2023-02-13T18:46:21;49.23;;;24.00;;
21769;SDS011;11046;49.558;8.674;2023-02-13T18:49:24;46.87;;;23.37;;
21769;SDS011;11046;49.558;8.674;2023-02-13T18:52:25;47.97;;;22.80;;
21769;SDS011;11046;49.558;8.674;2023-02-13T18:55:29;49.37;;;23.93;;
21769;SDS011;11046;49.558;8.674;2023-02-13T18:58:30;51.33;;;22.97;;
21769;SDS011;11046;49.558;8.674;2023-02-13T19:01:32;50.73;;;25.53;;
21769;SDS011;11046;49.558;8.674;2023-02-13T19:04:34;51.00;;;24.40;;
21769;SDS011;11046;49.558;8.674;2023-02-13T19:07:35;53.07;;;25.80;;
21769;SDS011;11046;49.558;8.674;2023-02-13T19:10:36;51.03;;;24.70;;
21769;SDS011;11046;49.558;8.674;2023-02-13T19:13:37;45.50;;;23.37;;
21769;SDS011;11046;49.558;8.674;2023-02-13T19:16:38;50.30;;;22.40;;
21769;SDS011;11046;49.558;8.674;2023-02-13T19:19:39;35.30;;;17.97;;
21769;SDS011;11046;49.558;8.674;2023-02-13T19:22:40;33.43;;;17.20;;
21769;SDS011;11046;49.558;8.674;2023-02-13T19:25:42;29.97;;;14.93;;
21769;SDS011;11046;49.558;8.674;2023-02-13T19:28:42;30.53;;;15.90;;
21769;SDS011;11046;49.558;8.674;2023-02-13T19:31:44;52.77;;;27.37;;
21769;SDS011;11046;49.558;8.674;2023-02-13T19:34:44;48.93;;;26.47;;
21769;SDS011;11046;49.558;8.674;2023-02-13T19:37:46;50.23;;;24.97;;
21769;SDS011;11046;49.558;8.674;2023-02-13T19:40:48;48.47;;;24.70;;
21769;SDS011;11046;49.558;8.674;2023-02-13T19:43:50;49.03;;;25.47;;
21769;SDS011;11046;49.558;8.674;2023-02-13T19:46:55;51.83;;;24.33;;
21769;SDS011;11046;49.558;8.674;2023-02-13T19:49:57;46.43;;;23.03;;
21769;SDS011;11046;49.558;8.674;2023-02-13T19:52:57;79.87;;;46.90;;
21769;SDS011;11046;49.558;8.674;2023-02-13T19:55:59;60.93;;;35.00;;
21769;SDS011;11046;49.558;8.674;2023-02-13T19:59:01;66.73;;;31.53;;
21769;SDS011;11046;49.558;8.674;2023-02-13T20:02:03;55.97;;;29.00;;
21769;SDS011;11046;49.558;8.674;2023-02-13T20:05:03;49.77;;;27.47;;